createdAt,value
2018-07-13T00:00:15.468Z,99.99
2018-07-13T00:01:15.471Z,99.99
2018-07-13T00:02:15.472Z,99.99
2018-07-13T00:03:15.471Z,99.99
2018-07-13T00:04:15.473Z,99.99
2018-07-13T00:05:15.474Z,99.99
2018-07-13T00:06:15.478Z,99.99
2018-07-13T00:07:15.479Z,99.99
2018-07-13T00:08:15.481Z,99.99
2018-07-13T00:09:15.485Z,99.99
2018-07-13T00:10:15.485Z,99.99
2018-07-13T00:11:15.486Z,99.99
2018-07-13T00:12:15.488Z,99.99
2018-07-13T00:13:15.493Z,99.99
2018-07-13T00:14:15.491Z,99.99
2018-07-13T00:15:15.494Z,99.99
2018-07-13T00:16:15.494Z,99.99
2018-07-13T00:17:15.497Z,99.99
2018-07-13T00:18:15.498Z,99.99
2018-07-13T00:19:15.500Z,99.99
2018-07-13T00:20:15.501Z,99.99
2018-07-13T00:21:15.501Z,99.99
2018-07-13T00:22:15.504Z,99.99
2018-07-13T00:23:15.505Z,99.99
2018-07-13T00:24:15.507Z,99.99
2018-07-13T00:25:15.508Z,99.99
2018-07-13T00:26:15.510Z,99.99
2018-07-13T00:27:15.512Z,99.99
2018-07-13T00:28:15.513Z,99.99
2018-07-13T00:29:15.514Z,99.99
2018-07-13T00:30:15.517Z,99.99
2018-07-13T00:31:15.518Z,99.99
2018-07-13T00:32:15.523Z,99.99
2018-07-13T00:33:15.519Z,99.99
2018-07-13T00:34:15.523Z,99.99
2018-07-13T00:35:15.523Z,99.99
2018-07-13T00:36:15.526Z,99.99
2018-07-13T00:37:15.525Z,99.99
2018-07-13T00:38:15.532Z,99.99
2018-07-13T00:39:15.528Z,99.99
2018-07-13T00:40:15.530Z,99.99
2018-07-13T00:41:15.531Z,99.99
2018-07-13T00:42:15.533Z,99.99
2018-07-13T00:43:15.535Z,99.99
2018-07-13T00:44:15.537Z,99.99
2018-07-13T00:45:15.536Z,99.99
2018-07-13T00:46:15.539Z,99.99
2018-07-13T00:47:15.540Z,99.99
2018-07-13T00:48:15.540Z,99.99
2018-07-13T00:49:15.543Z,99.99
2018-07-13T00:50:15.544Z,99.99
2018-07-13T00:51:15.545Z,99.99
2018-07-13T00:52:15.545Z,99.99
2018-07-13T00:53:15.546Z,99.99
2018-07-13T00:54:15.548Z,99.99
2018-07-13T00:55:15.550Z,99.99
2018-07-13T00:56:15.551Z,99.99
2018-07-13T00:57:15.551Z,99.99
2018-07-13T00:58:15.553Z,99.99
2018-07-13T00:59:15.554Z,99.99
2018-07-13T01:00:15.556Z,99.99
2018-07-13T01:01:15.555Z,99.99
2018-07-13T01:02:15.557Z,99.99
2018-07-13T01:03:15.558Z,99.99
2018-07-13T01:04:15.561Z,99.99
2018-07-13T01:05:15.560Z,99.99
2018-07-13T01:06:15.563Z,99.99
2018-07-13T01:07:15.562Z,99.99
2018-07-13T01:08:15.564Z,99.99
2018-07-13T01:09:15.565Z,99.99
2018-07-13T01:10:15.567Z,99.99
2018-07-13T01:11:15.568Z,99.99
2018-07-13T01:12:15.568Z,99.99
2018-07-13T01:13:15.568Z,99.99
2018-07-13T01:14:15.574Z,99.99
2018-07-13T01:15:15.573Z,99.99
2018-07-13T01:16:15.572Z,99.99
2018-07-13T01:17:15.576Z,99.99
2018-07-13T01:18:15.574Z,99.99
2018-07-13T01:19:15.577Z,99.99
2018-07-13T01:20:15.577Z,99.99
2018-07-13T01:21:15.589Z,99.99
2018-07-13T01:22:15.578Z,99.99
2018-07-13T01:23:15.584Z,99.99
2018-07-13T01:24:15.581Z,99.99
2018-07-13T01:25:15.580Z,99.99
2018-07-13T01:26:15.583Z,99.99
2018-07-13T01:27:15.585Z,99.99
2018-07-13T01:28:15.584Z,99.99
2018-07-13T01:29:15.584Z,99.99
2018-07-13T01:30:15.587Z,99.99
2018-07-13T01:31:15.586Z,99.99
2018-07-13T01:32:15.597Z,99.99
2018-07-13T01:33:15.588Z,99.99
2018-07-13T01:34:15.588Z,99.99
2018-07-13T01:35:15.591Z,99.99
2018-07-13T01:36:15.591Z,99.99
2018-07-13T01:37:15.594Z,99.99
2018-07-13T01:38:15.591Z,99.99
2018-07-13T01:39:15.593Z,99.99
2018-07-13T01:40:15.593Z,99.99
2018-07-13T01:41:15.594Z,99.99
2018-07-13T01:42:15.597Z,99.99
2018-07-13T01:43:15.596Z,99.99
2018-07-13T01:44:15.597Z,99.99
2018-07-13T01:45:15.597Z,99.99
2018-07-13T01:46:15.599Z,99.99
2018-07-13T01:47:15.599Z,99.99
2018-07-13T01:48:15.601Z,99.99
2018-07-13T01:49:15.600Z,99.99
2018-07-13T01:50:15.601Z,99.99
2018-07-13T01:51:15.605Z,99.99
2018-07-13T01:52:15.604Z,99.99
2018-07-13T01:53:15.602Z,99.99
2018-07-13T01:54:15.604Z,99.99
2018-07-13T01:55:15.606Z,99.99
2018-07-13T01:56:15.607Z,99.99
2018-07-13T01:57:15.605Z,99.99
2018-07-13T01:58:15.606Z,99.99
2018-07-13T01:59:15.608Z,99.99
2018-07-13T02:00:15.608Z,99.99
2018-07-13T02:01:15.611Z,99.99
2018-07-13T02:02:15.608Z,99.99
2018-07-13T02:03:15.609Z,99.99
2018-07-13T02:04:15.610Z,99.99
2018-07-13T02:05:15.610Z,99.99
2018-07-13T02:06:15.612Z,99.99
2018-07-13T02:07:15.611Z,99.99
2018-07-13T02:08:15.613Z,99.99
2018-07-13T02:09:15.613Z,99.99
2018-07-13T02:10:15.613Z,99.99
2018-07-13T02:11:15.613Z,99.99
2018-07-13T02:12:15.615Z,99.99
2018-07-13T02:13:15.614Z,99.99
2018-07-13T02:14:15.622Z,99.99
2018-07-13T02:15:15.616Z,99.99
2018-07-13T02:16:15.619Z,99.99
2018-07-13T02:17:15.616Z,99.99
2018-07-13T02:18:15.616Z,99.99
2018-07-13T02:19:15.617Z,99.99
2018-07-13T02:20:15.618Z,99.99
2018-07-13T02:21:15.619Z,99.99
2018-07-13T02:22:15.620Z,99.99
2018-07-13T02:23:15.619Z,99.99
2018-07-13T02:24:15.621Z,99.99
2018-07-13T02:25:15.622Z,99.99
2018-07-13T02:26:15.620Z,99.99
2018-07-13T02:27:15.622Z,99.99
2018-07-13T02:28:15.622Z,99.99
2018-07-13T02:29:15.621Z,99.99
2018-07-13T02:30:15.635Z,99.99
2018-07-13T02:31:15.624Z,99.99
2018-07-13T02:32:15.624Z,99.99
2018-07-13T02:33:15.624Z,99.99
2018-07-13T02:34:15.630Z,99.99
2018-07-13T02:35:15.625Z,99.99
2018-07-13T02:36:15.626Z,99.99
2018-07-13T02:37:15.629Z,99.99
2018-07-13T02:38:15.626Z,99.99
2018-07-13T02:39:15.627Z,99.99
2018-07-13T02:40:15.626Z,99.99
2018-07-13T02:41:15.627Z,99.99
2018-07-13T02:42:15.631Z,99.99
2018-07-13T02:43:15.629Z,99.99
2018-07-13T02:44:15.627Z,99.99
2018-07-13T02:45:15.628Z,99.99
2018-07-13T02:46:15.629Z,99.99
2018-07-13T02:47:15.629Z,99.99
2018-07-13T02:48:15.644Z,99.99
2018-07-13T02:49:15.630Z,99.99
2018-07-13T02:50:15.629Z,99.99
2018-07-13T02:51:15.631Z,99.99
2018-07-13T02:52:15.632Z,99.99
2018-07-13T02:53:15.631Z,99.99
2018-07-13T02:54:15.630Z,99.99
2018-07-13T02:55:15.632Z,99.99
2018-07-13T02:56:15.633Z,99.99
2018-07-13T02:57:15.633Z,99.99
2018-07-13T02:58:15.633Z,99.99
2018-07-13T02:59:15.632Z,99.99
2018-07-13T03:00:15.635Z,99.99
2018-07-13T03:01:15.632Z,99.99
2018-07-13T03:02:15.634Z,99.99
2018-07-13T03:03:15.634Z,99.99
2018-07-13T03:04:15.635Z,99.99
2018-07-13T03:05:15.641Z,99.99
2018-07-13T03:06:15.634Z,99.99
2018-07-13T03:07:15.636Z,99.99
2018-07-13T03:08:15.650Z,99.99
2018-07-13T03:09:15.635Z,99.99
2018-07-13T03:10:15.636Z,99.99
2018-07-13T03:11:15.637Z,99.99
2018-07-13T03:12:15.637Z,99.99
2018-07-13T03:13:15.637Z,99.99
2018-07-13T03:14:15.638Z,99.99
2018-07-13T03:15:15.638Z,99.99
2018-07-13T03:16:15.640Z,99.99
2018-07-13T03:17:15.640Z,99.99
2018-07-13T03:18:15.639Z,99.99
2018-07-13T03:19:15.643Z,99.99
2018-07-13T03:20:15.641Z,99.99
2018-07-13T03:21:15.644Z,99.99
2018-07-13T03:22:15.760Z,99.99
2018-07-13T03:23:15.648Z,99.99
2018-07-13T03:24:15.643Z,99.99
2018-07-13T03:25:15.642Z,99.99
2018-07-13T03:26:15.642Z,99.99
2018-07-13T03:27:15.642Z,99.99
2018-07-13T03:28:15.644Z,99.99
2018-07-13T03:29:15.645Z,99.99
2018-07-13T03:30:15.643Z,99.99
2018-07-13T03:31:15.645Z,99.99
2018-07-13T03:32:15.645Z,99.99
2018-07-13T03:33:15.645Z,99.99
2018-07-13T03:34:15.647Z,99.99
2018-07-13T03:35:15.647Z,99.99
2018-07-13T03:36:15.648Z,99.99
2018-07-13T03:37:15.648Z,99.99
2018-07-13T03:38:15.651Z,99.99
2018-07-13T03:39:15.649Z,99.99
2018-07-13T03:40:15.650Z,99.99
2018-07-13T03:41:15.649Z,99.99
2018-07-13T03:42:15.650Z,99.99
2018-07-13T03:43:15.656Z,99.99
2018-07-13T03:44:15.651Z,99.99
2018-07-13T03:45:15.652Z,99.99
2018-07-13T03:46:15.652Z,99.99
2018-07-13T03:47:15.654Z,99.99
2018-07-13T03:48:15.658Z,99.99
2018-07-13T03:49:15.653Z,99.99
2018-07-13T03:50:15.654Z,99.99
2018-07-13T03:51:15.656Z,99.99
2018-07-13T03:52:15.657Z,99.99
2018-07-13T03:53:15.657Z,99.99
2018-07-13T03:54:15.732Z,99.99
2018-07-13T03:55:15.659Z,99.99
2018-07-13T03:56:15.661Z,99.99
2018-07-13T03:57:15.660Z,99.99
2018-07-13T03:58:15.659Z,99.99
2018-07-13T03:59:15.661Z,99.99
2018-07-13T04:00:15.662Z,99.99
2018-07-13T04:01:15.662Z,99.99
2018-07-13T04:02:15.663Z,99.99
2018-07-13T04:03:15.664Z,99.99
2018-07-13T04:04:15.664Z,99.99
2018-07-13T04:05:15.667Z,99.99
2018-07-13T04:06:15.666Z,99.99
2018-07-13T04:07:15.667Z,99.99
2018-07-13T04:08:15.668Z,99.99
2018-07-13T04:09:15.667Z,99.99
2018-07-13T04:10:15.668Z,99.99
2018-07-13T04:11:15.669Z,99.99
2018-07-13T04:12:15.671Z,99.99
2018-07-13T04:13:15.671Z,99.99
2018-07-13T04:14:15.671Z,99.99
2018-07-13T04:15:15.672Z,99.99
2018-07-13T04:16:15.673Z,99.99
2018-07-13T04:17:15.674Z,99.99
2018-07-13T04:18:15.676Z,99.99
2018-07-13T04:19:15.680Z,99.99
2018-07-13T04:20:15.678Z,99.99
2018-07-13T04:21:15.676Z,99.99
2018-07-13T04:22:15.677Z,99.99
2018-07-13T04:23:15.681Z,99.99
2018-07-13T04:24:15.680Z,99.99
2018-07-13T04:25:15.680Z,99.99
2018-07-13T04:26:15.681Z,99.99
2018-07-13T04:27:15.684Z,99.99
2018-07-13T04:28:15.684Z,99.99
2018-07-13T04:29:15.684Z,99.99
2018-07-13T04:30:15.684Z,99.99
2018-07-13T04:31:15.685Z,99.99
2018-07-13T04:32:15.686Z,99.99
2018-07-13T04:33:15.686Z,99.99
2018-07-13T04:34:15.715Z,99.99
2018-07-13T04:35:15.689Z,99.99
2018-07-13T04:36:15.690Z,99.99
2018-07-13T04:37:15.689Z,99.99
2018-07-13T04:38:15.693Z,99.99
2018-07-13T04:39:15.691Z,99.99
2018-07-13T04:40:15.693Z,99.99
2018-07-13T04:41:15.694Z,99.99
2018-07-13T04:42:15.694Z,99.99
2018-07-13T04:43:15.695Z,99.99
2018-07-13T04:44:15.696Z,99.99
2018-07-13T04:45:15.696Z,99.99
2018-07-13T04:46:15.697Z,99.99
2018-07-13T04:47:15.699Z,99.99
2018-07-13T04:48:15.699Z,99.99
2018-07-13T04:49:15.699Z,99.99
2018-07-13T04:50:15.730Z,99.99
2018-07-13T04:51:15.701Z,99.99
2018-07-13T04:52:15.703Z,99.99
2018-07-13T04:53:15.702Z,99.99
2018-07-13T04:54:15.705Z,99.99
2018-07-13T04:55:15.704Z,99.99
2018-07-13T04:56:15.706Z,99.99
2018-07-13T04:57:15.706Z,99.99
2018-07-13T04:58:15.709Z,99.99
2018-07-13T04:59:15.709Z,99.99
2018-07-13T05:00:15.711Z,99.99
2018-07-13T05:01:15.711Z,99.99
2018-07-13T05:02:15.712Z,99.99
2018-07-13T05:03:15.713Z,99.99
2018-07-13T05:04:15.714Z,99.99
2018-07-13T05:05:15.715Z,99.99
2018-07-13T05:06:15.740Z,99.99
2018-07-13T05:07:15.719Z,99.99
2018-07-13T05:08:15.718Z,99.99
2018-07-13T05:09:15.720Z,99.99
2018-07-13T05:10:15.720Z,99.99
2018-07-13T05:11:15.721Z,99.99
2018-07-13T05:12:15.724Z,99.99
2018-07-13T05:13:15.724Z,99.99
2018-07-13T05:14:15.725Z,99.99
2018-07-13T05:15:15.726Z,99.99
2018-07-13T05:16:15.728Z,99.99
2018-07-13T05:17:15.727Z,99.99
2018-07-13T05:18:15.730Z,99.99
2018-07-13T05:19:15.735Z,99.99
2018-07-13T05:20:15.732Z,99.99
2018-07-13T05:21:15.774Z,99.99
2018-07-13T05:22:15.737Z,99.99
2018-07-13T05:23:15.735Z,99.99
2018-07-13T05:24:15.741Z,99.99
2018-07-13T05:25:15.737Z,99.99
2018-07-13T05:26:15.739Z,99.99
2018-07-13T05:27:15.743Z,99.99
2018-07-13T05:28:15.741Z,99.99
2018-07-13T05:29:15.742Z,99.99
2018-07-13T05:30:15.744Z,99.99
2018-07-13T05:31:15.746Z,99.99
2018-07-13T05:32:15.748Z,99.99
2018-07-13T05:33:15.749Z,99.99
2018-07-13T05:34:15.748Z,99.99
2018-07-13T05:35:15.752Z,99.99
2018-07-13T05:36:15.752Z,99.99
2018-07-13T05:37:15.754Z,99.99
2018-07-13T05:38:15.804Z,99.99
2018-07-13T05:39:15.756Z,99.99
2018-07-13T05:40:15.759Z,99.99
2018-07-13T05:41:15.759Z,99.99
2018-07-13T05:42:15.760Z,99.99
2018-07-13T05:43:15.762Z,99.99
2018-07-13T05:44:15.767Z,99.99
2018-07-13T05:45:15.762Z,99.99
2018-07-13T05:46:15.764Z,99.99
2018-07-13T05:47:15.766Z,99.99
2018-07-13T05:48:15.768Z,99.99
2018-07-13T05:49:15.769Z,99.99
2018-07-13T05:50:15.773Z,99.99
2018-07-13T05:51:15.771Z,99.99
2018-07-13T05:52:15.772Z,99.99
2018-07-13T05:53:15.773Z,99.99
2018-07-13T05:54:15.775Z,99.99
2018-07-13T05:55:15.776Z,99.99
2018-07-13T05:56:15.781Z,99.99
2018-07-13T05:57:15.779Z,99.99
2018-07-13T05:58:15.781Z,99.99
2018-07-13T05:59:15.781Z,99.99
2018-07-13T06:00:15.784Z,99.99
2018-07-13T06:01:15.786Z,99.99
2018-07-13T06:02:15.787Z,99.99
2018-07-13T06:03:15.788Z,99.99
2018-07-13T06:04:15.790Z,99.99
2018-07-13T06:05:15.791Z,99.99
2018-07-13T06:06:15.791Z,99.99
2018-07-13T06:07:15.793Z,99.99
2018-07-13T06:08:15.795Z,99.99
2018-07-13T06:09:15.796Z,99.99
2018-07-13T06:10:15.797Z,99.99
2018-07-13T06:11:15.800Z,99.99
2018-07-13T06:12:15.804Z,99.99
2018-07-13T06:13:15.805Z,99.99
2018-07-13T06:14:15.804Z,99.99
2018-07-13T06:15:15.805Z,99.99
2018-07-13T06:16:15.807Z,99.99
2018-07-13T06:17:15.807Z,99.99
2018-07-13T06:18:15.810Z,99.99
2018-07-13T06:19:15.811Z,99.99
2018-07-13T06:20:15.873Z,99.99
2018-07-13T06:21:15.813Z,99.99
2018-07-13T06:22:15.815Z,99.99
2018-07-13T06:23:15.817Z,99.99
2018-07-13T06:24:15.832Z,99.99
2018-07-13T06:25:15.821Z,99.99
2018-07-13T06:26:15.823Z,99.99
2018-07-13T06:27:15.823Z,99.99
2018-07-13T06:28:15.825Z,99.99
2018-07-13T06:29:15.831Z,99.99
2018-07-13T06:30:15.891Z,99.99
2018-07-13T06:31:15.865Z,99.99
2018-07-13T06:32:15.835Z,99.99
2018-07-13T06:33:15.834Z,99.99
2018-07-13T06:34:15.835Z,99.99
2018-07-13T06:35:15.837Z,99.99
2018-07-13T06:36:15.838Z,99.99
2018-07-13T06:37:15.843Z,99.99
2018-07-13T06:38:15.842Z,99.99
2018-07-13T06:39:15.844Z,99.99
2018-07-13T06:40:15.846Z,99.99
2018-07-13T06:41:15.848Z,99.99
2018-07-13T06:42:15.851Z,99.99
2018-07-13T06:43:15.851Z,99.99
2018-07-13T06:44:15.853Z,99.99
2018-07-13T06:45:15.854Z,99.99
2018-07-13T06:46:15.857Z,99.99
2018-07-13T06:47:15.859Z,99.99
2018-07-13T06:48:15.861Z,99.99
2018-07-13T06:49:15.862Z,99.99
2018-07-13T06:50:15.865Z,99.99
2018-07-13T06:51:15.866Z,99.99
2018-07-13T06:52:15.869Z,99.99
2018-07-13T06:53:15.871Z,99.99
2018-07-13T06:54:15.873Z,99.99
2018-07-13T06:55:15.874Z,99.99
2018-07-13T06:56:15.877Z,99.99
2018-07-13T06:57:15.878Z,99.99
2018-07-13T06:58:15.880Z,99.99
2018-07-13T06:59:15.884Z,99.99
2018-07-13T07:00:15.885Z,99.99
2018-07-13T07:01:15.888Z,99.99
2018-07-13T07:02:15.888Z,99.99
2018-07-13T07:03:15.896Z,99.99
2018-07-13T07:04:15.894Z,99.99
2018-07-13T07:05:15.895Z,99.99
2018-07-13T07:06:15.898Z,99.39
2018-07-13T07:07:15.902Z,99.58
2018-07-13T07:08:15.903Z,99.58
2018-07-13T07:09:15.907Z,99.99
2018-07-13T07:10:15.909Z,99.99
2018-07-13T07:11:15.910Z,99.99
2018-07-13T07:12:15.914Z,99.99
2018-07-13T07:13:15.916Z,99.99
2018-07-13T07:14:15.918Z,99.99
2018-07-13T07:15:15.922Z,99.99
2018-07-13T07:16:15.926Z,99.24
2018-07-13T07:17:15.925Z,98.24
2018-07-13T07:18:15.931Z,97.56
2018-07-13T07:19:15.931Z,97.19
2018-07-13T07:20:15.934Z,96.61
2018-07-13T07:21:15.936Z,95.12
2018-07-13T07:22:15.940Z,94.64
2018-07-13T07:23:15.944Z,94.31
2018-07-13T07:24:15.947Z,92.14
2018-07-13T07:25:15.948Z,91.33
2018-07-13T07:26:15.957Z,91.33
2018-07-13T07:27:15.955Z,92.10
2018-07-13T07:28:15.963Z,91.90
2018-07-13T07:29:15.961Z,92.24
2018-07-13T07:30:15.967Z,92.19
2018-07-13T07:31:15.969Z,91.71
2018-07-13T07:32:15.972Z,90.75
2018-07-13T07:33:15.977Z,90.56
2018-07-13T07:34:15.980Z,89.69
2018-07-13T07:36:14.342Z,89.79
2018-07-13T07:37:14.344Z,89.98
2018-07-13T07:38:14.349Z,89.89
2018-07-13T07:39:14.352Z,89.93
2018-07-13T07:40:14.355Z,89.40
2018-07-13T07:41:14.359Z,86.85
2018-07-13T07:42:14.365Z,85.54
2018-07-13T07:43:14.369Z,83.66
2018-07-13T07:44:14.376Z,82.89
2018-07-13T07:45:14.380Z,80.56
2018-07-13T07:46:14.386Z,78.73
2018-07-13T07:47:14.393Z,77.81
2018-07-13T07:48:14.401Z,76.26
2018-07-13T07:49:14.406Z,76.40
2018-07-13T07:50:14.414Z,75.62
2018-07-13T07:51:14.422Z,77.63
2018-07-13T07:52:14.430Z,78.06
2018-07-13T07:53:14.438Z,77.96
2018-07-13T07:54:14.452Z,79.33
2018-07-13T07:55:14.457Z,78.67
2018-07-13T07:56:14.479Z,75.68
2018-07-13T07:57:14.475Z,74.99
2018-07-13T07:58:14.483Z,74.83
2018-07-13T07:59:14.495Z,72.26
2018-07-13T08:00:14.503Z,72.67
2018-07-13T08:01:14.514Z,72.80
2018-07-13T08:02:14.524Z,71.64
2018-07-13T08:03:14.535Z,72.64
2018-07-13T08:04:14.546Z,72.04
2018-07-13T08:05:14.556Z,69.56
2018-07-13T08:06:14.684Z,68.63
2018-07-13T08:07:14.955Z,67.98
2018-07-13T08:08:14.593Z,67.34
2018-07-13T08:09:14.604Z,65.85
2018-07-13T08:10:14.617Z,65.53
2018-07-13T08:11:14.629Z,66.69
2018-07-13T08:12:14.642Z,67.46
2018-07-13T08:13:14.654Z,66.27
2018-07-13T08:14:14.836Z,64.27
2018-07-13T08:15:14.683Z,62.55
2018-07-13T08:16:14.694Z,61.81
2018-07-13T08:17:14.708Z,61.52
2018-07-13T08:18:14.723Z,61.91
2018-07-13T08:19:14.738Z,63.07
2018-07-13T08:20:14.751Z,65.66
2018-07-13T08:21:14.763Z,65.82
2018-07-13T08:22:14.782Z,66.50
2018-07-13T08:23:14.794Z,66.37
2018-07-13T08:24:14.808Z,66.11
2018-07-13T08:25:14.822Z,65.53
2018-07-13T08:26:14.837Z,64.59
2018-07-13T08:27:14.851Z,63.75
2018-07-13T08:28:14.866Z,62.95
2018-07-13T08:29:14.880Z,62.49
2018-07-13T08:30:14.896Z,61.36
2018-07-13T08:31:14.911Z,60.61
2018-07-13T08:32:14.927Z,60.03
2018-07-13T08:33:14.939Z,62.07
2018-07-13T08:34:14.955Z,62.56
2018-07-13T08:35:14.970Z,63.11
2018-07-13T08:36:14.984Z,63.34
2018-07-13T08:37:14.999Z,61.75
2018-07-13T08:38:15.015Z,60.85
2018-07-13T08:39:15.030Z,61.22
2018-07-13T08:40:15.046Z,58.83
2018-07-13T08:41:15.059Z,58.70
2018-07-13T08:42:15.074Z,58.48
2018-07-13T08:43:15.090Z,59.33
2018-07-13T08:44:15.104Z,59.97
2018-07-13T08:45:15.118Z,60.36
2018-07-13T08:46:15.135Z,61.36
2018-07-13T08:47:15.150Z,60.03
2018-07-13T08:48:15.165Z,60.49
2018-07-13T08:49:15.180Z,59.67
2018-07-13T08:50:15.201Z,58.28
2018-07-13T08:51:15.266Z,57.51
2018-07-13T08:52:15.228Z,58.74
2018-07-13T08:53:15.243Z,60.17
2018-07-13T08:54:15.257Z,61.36
2018-07-13T08:55:15.271Z,60.16
2018-07-13T08:56:15.317Z,59.36
2018-07-13T08:57:15.301Z,60.39
2018-07-13T08:58:15.317Z,60.94
2018-07-13T08:59:15.332Z,61.55
2018-07-13T09:00:15.349Z,60.88
2018-07-13T09:01:15.363Z,59.77
2018-07-13T09:02:15.379Z,58.44
2018-07-13T09:03:15.395Z,58.28
2018-07-13T09:04:15.430Z,56.65
2018-07-13T09:05:15.425Z,54.80
2018-07-13T09:06:15.444Z,55.85
2018-07-13T09:07:15.458Z,56.24
2018-07-13T09:08:15.470Z,56.26
2018-07-13T09:09:15.486Z,55.03
2018-07-13T09:10:15.501Z,54.68
2018-07-13T09:11:15.517Z,56.56
2018-07-13T09:12:15.532Z,55.85
2018-07-13T09:13:15.548Z,56.52
2018-07-13T09:14:15.564Z,56.40
2018-07-13T09:15:15.591Z,56.24
2018-07-13T09:16:15.597Z,56.50
2018-07-13T09:17:15.610Z,55.73
2018-07-13T09:18:15.638Z,55.85
2018-07-13T09:19:15.642Z,54.64
2018-07-13T09:20:15.656Z,53.89
2018-07-13T09:21:15.673Z,53.04
2018-07-13T09:22:15.688Z,52.26
2018-07-13T09:23:15.703Z,52.14
2018-07-13T09:24:15.720Z,52.92
2018-07-13T09:25:15.735Z,52.58
2018-07-13T09:26:15.750Z,51.07
2018-07-13T09:27:15.766Z,51.29
2018-07-13T09:28:15.782Z,52.82
2018-07-13T09:29:15.799Z,53.69
2018-07-13T09:30:15.814Z,53.79
2018-07-13T09:31:15.872Z,53.69
2018-07-13T09:32:15.846Z,53.30
2018-07-13T09:33:15.861Z,52.75
2018-07-13T09:34:15.877Z,52.16
2018-07-13T09:35:15.910Z,51.12
2018-07-13T09:36:15.910Z,51.29
2018-07-13T09:37:15.924Z,52.55
2018-07-13T09:38:16.010Z,52.82
2018-07-13T09:39:15.956Z,54.72
2018-07-13T09:40:15.972Z,57.54
2018-07-13T09:41:15.987Z,57.11
2018-07-13T09:42:16.003Z,56.30
2018-07-13T09:43:16.022Z,55.11
2018-07-13T09:44:16.036Z,55.63
2018-07-13T09:45:16.052Z,54.61
2018-07-13T09:46:16.071Z,53.30
2018-07-13T09:47:16.088Z,53.32
2018-07-13T09:48:16.099Z,52.69
2018-07-13T09:49:16.113Z,50.80
2018-07-13T09:50:16.129Z,50.82
2018-07-13T09:51:16.145Z,49.58
2018-07-13T09:52:16.160Z,49.00
2018-07-13T09:53:16.176Z,50.19
2018-07-13T09:54:16.264Z,51.33
2018-07-13T09:55:16.208Z,52.14
2018-07-13T09:56:16.223Z,50.41
2018-07-13T09:57:16.245Z,50.87
2018-07-13T09:58:16.309Z,50.51
2018-07-13T09:59:16.270Z,50.65
2018-07-13T10:00:16.286Z,50.51
2018-07-13T10:01:16.301Z,51.17
2018-07-13T10:02:16.316Z,50.34
2018-07-13T10:03:16.334Z,48.93
2018-07-13T10:04:16.348Z,47.02
2018-07-13T10:05:16.372Z,46.36
2018-07-13T10:06:16.382Z,46.69
2018-07-13T10:07:16.395Z,49.17
2018-07-13T10:08:16.411Z,50.02
2018-07-13T10:09:16.427Z,50.31
2018-07-13T10:10:16.442Z,51.26
2018-07-13T10:11:16.457Z,51.17
2018-07-13T10:12:16.472Z,51.26
2018-07-13T10:13:16.524Z,49.92
2018-07-13T10:14:16.504Z,50.43
2018-07-13T10:15:16.519Z,48.58
2018-07-13T10:16:16.535Z,50.41
2018-07-13T10:17:16.551Z,50.65
2018-07-13T10:18:16.564Z,51.04
2018-07-13T10:19:16.580Z,51.09
2018-07-13T10:20:16.596Z,50.43
2018-07-13T10:21:16.609Z,50.48
2018-07-13T10:22:16.626Z,52.21
2018-07-13T10:23:16.641Z,51.39
2018-07-13T10:24:16.658Z,51.62
2018-07-13T10:25:16.672Z,53.28
2018-07-13T10:26:16.686Z,52.06
2018-07-13T10:27:16.702Z,50.43
2018-07-13T10:28:16.717Z,49.92
2018-07-13T10:29:16.827Z,50.12
2018-07-13T10:30:16.748Z,50.48
2018-07-13T10:31:16.762Z,50.24
2018-07-13T10:32:16.779Z,49.68
2018-07-13T10:33:16.792Z,51.09
2018-07-13T10:34:16.808Z,52.01
2018-07-13T10:35:16.843Z,52.98
2018-07-13T10:36:16.840Z,52.04
2018-07-13T10:37:16.852Z,52.26
2018-07-13T10:38:16.868Z,50.14
2018-07-13T10:39:16.884Z,50.70
2018-07-13T10:40:16.899Z,51.19
2018-07-13T10:41:16.914Z,50.60
2018-07-13T10:42:16.927Z,50.92
2018-07-13T10:43:16.943Z,50.21
2018-07-13T10:44:16.958Z,49.44
2018-07-13T10:45:16.972Z,50.36
2018-07-13T10:46:17.019Z,50.80
2018-07-13T10:47:17.002Z,50.21
2018-07-13T10:48:17.017Z,49.19
2018-07-13T10:49:17.032Z,50.04
2018-07-13T10:50:17.045Z,50.21
2018-07-13T10:51:17.062Z,51.29
2018-07-13T10:52:17.076Z,50.51
2018-07-13T10:53:17.090Z,50.43
2018-07-13T10:54:17.104Z,48.73
2018-07-13T10:55:17.118Z,47.95
2018-07-13T10:56:17.134Z,48.51
2018-07-13T10:57:17.149Z,49.56
2018-07-13T10:58:17.166Z,48.95
2018-07-13T10:59:17.177Z,49.37
2018-07-13T11:00:17.193Z,49.07
2018-07-13T11:01:17.209Z,48.95
2018-07-13T11:02:17.221Z,50.31
2018-07-13T11:03:17.235Z,49.68
2018-07-13T11:04:17.250Z,48.29
2018-07-13T11:05:17.264Z,48.49
2018-07-13T11:06:17.279Z,48.88
2018-07-13T11:07:17.293Z,50.02
2018-07-13T11:08:17.308Z,50.31
2018-07-13T11:09:17.322Z,50.38
2018-07-13T11:10:17.336Z,50.21
2018-07-13T11:11:17.349Z,50.24
2018-07-13T11:12:17.364Z,50.21
2018-07-13T11:13:17.377Z,50.19
2018-07-13T11:14:17.393Z,51.01
2018-07-13T11:15:17.406Z,51.77
2018-07-13T11:16:17.423Z,51.40
2018-07-13T11:17:17.434Z,51.17
2018-07-13T11:18:17.447Z,50.31
2018-07-13T11:19:17.463Z,50.02
2018-07-13T11:20:17.475Z,49.34
2018-07-13T11:21:17.489Z,50.16
2018-07-13T11:22:17.502Z,50.36
2018-07-13T11:23:17.521Z,51.70
2018-07-13T11:24:17.541Z,53.06
2018-07-13T11:25:17.543Z,53.42
2018-07-13T11:26:17.556Z,53.69
2018-07-13T11:27:17.573Z,53.39
2018-07-13T11:28:17.583Z,54.44
2018-07-13T11:29:17.596Z,55.57
2018-07-13T11:30:17.609Z,56.90
2018-07-13T11:31:17.623Z,56.41
2018-07-13T11:32:17.635Z,56.13
2018-07-13T11:33:17.647Z,57.51
2018-07-13T11:34:17.659Z,55.99
2018-07-13T11:35:17.674Z,55.67
2018-07-13T11:36:17.690Z,56.13
2018-07-13T11:37:17.836Z,56.10
2018-07-13T11:38:17.708Z,57.36
2018-07-13T11:39:17.728Z,57.84
2018-07-13T11:40:17.732Z,57.94
2018-07-13T11:41:17.748Z,57.45
2018-07-13T11:42:17.755Z,57.58
2018-07-13T11:43:17.767Z,56.59
2018-07-13T11:44:17.811Z,57.48
2018-07-13T11:45:17.790Z,57.39
2018-07-13T11:46:17.802Z,56.90
2018-07-13T11:47:17.812Z,57.48
2018-07-13T11:48:17.825Z,56.90
2018-07-13T11:49:17.835Z,57.45
2018-07-13T11:50:17.846Z,57.36
2018-07-13T11:51:17.857Z,56.97
2018-07-13T11:52:17.868Z,56.68
2018-07-13T11:53:17.878Z,57.36
2018-07-13T11:54:17.891Z,57.23
2018-07-13T11:55:17.900Z,58.17
2018-07-13T11:56:17.910Z,58.30
2018-07-13T11:57:17.922Z,58.04
2018-07-13T11:58:17.930Z,57.65
2018-07-13T11:59:17.941Z,56.41
2018-07-13T12:00:17.952Z,56.35
2018-07-13T12:01:17.961Z,56.45
2018-07-13T12:02:17.972Z,56.15
2018-07-13T12:03:17.983Z,56.45
2018-07-13T12:04:17.996Z,55.77
2018-07-13T12:05:18.006Z,56.23
2018-07-13T12:06:18.012Z,56.61
2018-07-13T12:07:18.022Z,56.51
2018-07-13T12:08:18.033Z,56.45
2018-07-13T12:09:18.042Z,56.61
2018-07-13T12:10:18.051Z,57.68
2018-07-13T12:11:18.061Z,57.39
2018-07-13T12:12:18.071Z,57.39
2018-07-13T12:13:18.081Z,57.48
2018-07-13T12:14:18.140Z,56.64
2018-07-13T12:15:18.100Z,55.57
2018-07-13T12:16:18.109Z,54.92
2018-07-13T12:17:18.179Z,54.50
2018-07-13T12:18:18.128Z,55.38
2018-07-13T12:19:18.138Z,54.70
2018-07-13T12:20:18.149Z,54.99
2018-07-13T12:21:18.157Z,55.96
2018-07-13T12:22:18.167Z,56.03
2018-07-13T12:23:18.211Z,56.23
2018-07-13T12:24:18.188Z,56.23
2018-07-13T12:25:18.196Z,56.32
2018-07-13T12:26:18.208Z,55.93
2018-07-13T12:27:18.215Z,56.64
2018-07-13T12:28:18.226Z,56.81
2018-07-13T12:29:18.233Z,56.23
2018-07-13T12:30:18.247Z,56.13
2018-07-13T12:31:18.250Z,56.90
2018-07-13T12:32:18.327Z,56.25
2018-07-13T12:33:18.268Z,55.64
2018-07-13T12:34:18.277Z,56.51
2018-07-13T12:35:18.287Z,55.44
2018-07-13T12:36:18.296Z,55.18
2018-07-13T12:37:18.307Z,55.08
2018-07-13T12:38:18.315Z,54.80
2018-07-13T12:39:18.323Z,55.67
2018-07-13T12:40:18.332Z,54.60
2018-07-13T12:41:18.343Z,54.14
2018-07-13T12:42:18.354Z,53.30
2018-07-13T12:43:18.361Z,53.49
2018-07-13T12:44:18.370Z,53.30
2018-07-13T12:45:18.378Z,52.62
2018-07-13T12:46:18.389Z,52.74
2018-07-13T12:47:18.396Z,52.74
2018-07-13T12:48:18.407Z,52.06
2018-07-13T12:49:18.418Z,51.77
2018-07-13T12:50:18.423Z,51.09
2018-07-13T12:51:18.433Z,51.28
2018-07-13T12:52:18.441Z,52.15
2018-07-13T12:53:18.452Z,52.91